Baugh, Oklahoma
Current Conditions -  °F | °C
As of 1:55 PM on Tuesday 21 Oct 2014 (Local Time) from KOWP Reporting Station
Clear Clear  
Wind Chill: 27°   Ceiling: Unl
Heat Index: 27°   Visibility: 10mi
Dew Point: 16°   Wind: 6mph
Humidity: 52%   Direction: 140°SE
Pressure: 30.07"   Gusts: NA
Location:  36.248°N, 96.4789°W
Report Text: KOWP 211855Z AUTO 14005KT 10SM CLR 27/16 A3007 RMK AO2 T02680161
Loading
Personal Weather Stations






























Interactive Weather Map
Tropical Storm Tracking
New forecast layout! Learn more

10-Day Weather Forecast

Advertisements
Track Severe Weather on mobile